createdAt,value
2018-12-24T00:00:49.409Z,94.50
2018-12-24T00:05:56.108Z,94.40
2018-12-24T00:11:02.783Z,94.50
2018-12-24T00:16:09.394Z,94.70
2018-12-24T00:21:16.014Z,94.50
2018-12-24T00:26:22.466Z,94.50
2018-12-24T00:31:29.079Z,94.40
2018-12-24T00:36:35.655Z,94.50
2018-12-24T00:41:42.278Z,94.20
2018-12-24T00:46:48.972Z,94.20
2018-12-24T00:51:55.601Z,94.20
2018-12-24T00:57:02.264Z,94.20
2018-12-24T01:02:09.040Z,94.50
2018-12-24T01:07:15.716Z,94.30
2018-12-24T01:12:24.694Z,94.30
2018-12-24T01:17:30.762Z,94.20
2018-12-24T01:22:37.675Z,94.20
2018-12-24T01:27:44.168Z,93.90
2018-12-24T01:32:50.812Z,93.60
2018-12-24T01:37:57.396Z,93.30
2018-12-24T01:43:03.867Z,93.00
2018-12-24T01:48:10.479Z,92.70
2018-12-24T01:53:17.194Z,92.40
2018-12-24T01:58:23.727Z,92.30
2018-12-24T02:03:30.576Z,92.20
2018-12-24T02:08:37.076Z,91.90
2018-12-24T02:13:43.768Z,91.70
2018-12-24T02:18:50.254Z,91.60
2018-12-24T02:23:57.100Z,91.50
2018-12-24T02:29:03.722Z,91.30
2018-12-24T02:34:10.374Z,91.10
2018-12-24T02:39:16.965Z,90.90
2018-12-24T02:44:23.462Z,90.70
2018-12-24T02:49:30.268Z,90.60
2018-12-24T02:54:37.073Z,90.50
2018-12-24T02:59:43.739Z,90.40
2018-12-24T03:04:50.551Z,90.30
2018-12-24T03:09:57.115Z,90.30
2018-12-24T03:15:03.834Z,90.20
2018-12-24T03:20:10.453Z,90.10
2018-12-24T03:25:17.043Z,90.10
2018-12-24T03:30:23.652Z,90.00
2018-12-24T03:35:30.265Z,90.00
2018-12-24T03:40:36.992Z,89.90
2018-12-24T03:45:43.615Z,89.70
2018-12-24T03:50:50.354Z,89.70
2018-12-24T03:55:57.002Z,89.50
2018-12-24T04:01:03.686Z,89.50
2018-12-24T04:06:10.362Z,89.40
2018-12-24T04:11:16.829Z,89.30
2018-12-24T04:16:23.329Z,89.10
2018-12-24T04:21:29.956Z,88.90
2018-12-24T04:26:36.509Z,88.70
2018-12-24T04:31:43.339Z,88.70
2018-12-24T04:36:50.007Z,88.60
2018-12-24T04:41:56.631Z,88.40
2018-12-24T04:47:03.227Z,88.30
2018-12-24T04:52:10.020Z,88.20
2018-12-24T04:57:16.669Z,88.20
2018-12-24T05:02:23.219Z,88.20
2018-12-24T05:07:29.783Z,88.10
2018-12-24T05:12:36.267Z,88.10
2018-12-24T05:17:42.847Z,88.00
2018-12-24T05:22:49.355Z,88.00
2018-12-24T05:27:55.990Z,87.90
2018-12-24T05:33:02.763Z,87.50
2018-12-24T05:38:09.474Z,87.50
2018-12-24T05:43:16.037Z,87.50
2018-12-24T05:48:22.973Z,87.50
2018-12-24T05:53:29.703Z,87.40
2018-12-24T05:58:36.287Z,87.30
2018-12-24T06:03:42.771Z,87.20
2018-12-24T06:08:49.524Z,87.10
2018-12-24T06:13:58.120Z,86.80
2018-12-24T06:19:04.456Z,86.40
2018-12-24T06:24:11.231Z,86.30
2018-12-24T06:29:17.731Z,86.20
2018-12-24T06:34:24.618Z,85.90
2018-12-24T06:39:31.043Z,85.90
2018-12-24T06:44:37.883Z,85.90
2018-12-24T06:49:44.904Z,85.90
2018-12-24T06:54:51.642Z,85.90
2018-12-24T06:59:58.248Z,85.90
2018-12-24T07:05:04.917Z,86.00
2018-12-24T07:10:11.581Z,85.90
2018-12-24T07:15:18.167Z,85.80
2018-12-24T07:20:24.763Z,85.60
2018-12-24T07:25:31.315Z,85.70
2018-12-24T07:30:38.078Z,85.70
2018-12-24T07:35:44.714Z,85.50
2018-12-24T07:41:34.249Z,85.40
2018-12-24T07:46:40.961Z,85.30
2018-12-24T07:51:47.324Z,85.30
2018-12-24T07:56:53.508Z,85.10
2018-12-24T08:01:59.815Z,85.00
2018-12-24T08:07:05.917Z,85.00
2018-12-24T08:12:12.907Z,84.80
2018-12-24T08:17:19.388Z,85.00
2018-12-24T08:22:25.820Z,85.00
2018-12-24T08:27:31.941Z,84.90
2018-12-24T08:32:38.117Z,84.80
2018-12-24T08:37:44.293Z,84.80
2018-12-24T08:42:50.308Z,84.90
2018-12-24T08:47:56.522Z,84.80
2018-12-24T08:53:03.073Z,84.70
2018-12-24T08:58:09.259Z,85.30
2018-12-24T09:03:15.370Z,85.30
2018-12-24T09:08:21.535Z,85.10
2018-12-24T09:13:27.700Z,85.70
2018-12-24T09:18:33.878Z,85.40
2018-12-24T09:23:40.064Z,85.50
2018-12-24T09:28:46.166Z,84.30
2018-12-24T09:33:52.282Z,81.80
2018-12-24T09:38:58.612Z,81.50
2018-12-24T09:44:04.917Z,81.60
2018-12-24T09:49:10.952Z,81.80
2018-12-24T09:54:17.949Z,81.40
2018-12-24T09:59:24.024Z,80.60
2018-12-24T10:04:34.372Z,80.70
2018-12-24T10:09:41.819Z,80.80
2018-12-24T10:14:47.925Z,80.40
2018-12-24T10:19:54.019Z,78.30
2018-12-24T10:24:59.942Z,76.80
2018-12-24T10:30:07.118Z,74.10
2018-12-24T10:35:13.518Z,74.70
2018-12-24T10:40:19.867Z,75.40
2018-12-24T10:45:25.959Z,75.70
2018-12-24T10:50:32.570Z,75.80
2018-12-24T10:55:38.810Z,73.90
2018-12-24T11:00:44.858Z,66.60
2018-12-24T11:05:51.965Z,68.30
2018-12-24T11:10:58.161Z,70.60
2018-12-24T11:16:04.411Z,71.90
2018-12-24T11:21:10.602Z,72.40
2018-12-24T11:26:16.721Z,72.90
2018-12-24T11:31:22.897Z,72.70
2018-12-24T11:36:28.992Z,72.60
2018-12-24T11:41:35.447Z,72.40
2018-12-24T11:46:41.716Z,72.50
2018-12-24T11:51:47.785Z,72.10
2018-12-24T11:56:54.218Z,71.80
2018-12-24T12:02:00.432Z,71.40
2018-12-24T12:07:06.544Z,71.20
2018-12-24T12:12:12.861Z,71.10
2018-12-24T12:17:18.890Z,71.10
2018-12-24T12:22:24.964Z,70.70
2018-12-24T12:27:31.076Z,70.50
2018-12-24T12:32:37.201Z,70.20
2018-12-24T12:37:43.237Z,70.20
2018-12-24T12:42:49.717Z,70.20
2018-12-24T12:47:57.504Z,70.20
2018-12-24T12:53:04.785Z,70.00
2018-12-24T12:58:11.107Z,70.10
2018-12-24T13:03:17.185Z,69.90
2018-12-24T13:08:23.313Z,70.40
2018-12-24T13:13:36.736Z,71.00
2018-12-24T13:18:37.561Z,70.60
2018-12-24T13:23:43.667Z,70.80
2018-12-24T13:28:49.929Z,70.40
2018-12-24T13:33:56.314Z,70.10
2018-12-24T13:39:02.554Z,69.60
2018-12-24T13:44:08.566Z,69.60
2018-12-24T13:49:14.935Z,69.50
2018-12-24T13:54:21.093Z,69.40
2018-12-24T13:59:27.189Z,70.00
2018-12-24T14:04:33.290Z,70.20
2018-12-24T14:09:39.425Z,70.80
2018-12-24T14:14:45.693Z,70.20
2018-12-24T14:19:51.858Z,70.80
2018-12-24T14:24:57.864Z,70.10
2018-12-24T14:30:04.877Z,70.00
2018-12-24T14:35:11.077Z,69.90
2018-12-24T14:40:17.250Z,69.70
2018-12-24T14:45:23.506Z,69.50
2018-12-24T14:50:29.586Z,69.40
2018-12-24T14:55:35.617Z,69.50
2018-12-24T15:00:41.672Z,69.20
2018-12-24T15:05:47.825Z,69.00
2018-12-24T15:10:53.985Z,68.90
2018-12-24T15:16:00.075Z,68.70
2018-12-24T15:21:06.198Z,68.70
2018-12-24T15:26:12.563Z,68.70
2018-12-24T15:31:18.679Z,68.60
2018-12-24T15:36:24.770Z,68.50
2018-12-24T15:41:30.908Z,68.40
2018-12-24T15:46:42.687Z,68.60
2018-12-24T15:51:44.757Z,68.70
2018-12-24T15:56:50.968Z,68.60
2018-12-24T16:01:57.114Z,68.60
2018-12-24T16:07:03.244Z,68.60
2018-12-24T16:12:09.318Z,68.60
2018-12-24T16:17:15.468Z,69.20
2018-12-24T16:22:21.608Z,68.50
2018-12-24T16:27:27.697Z,68.60
2018-12-24T16:32:33.797Z,68.40
2018-12-24T16:37:39.872Z,68.10
2018-12-24T16:42:46.067Z,67.60
2018-12-24T16:47:52.084Z,67.50
2018-12-24T16:52:58.169Z,67.00
2018-12-24T16:58:04.267Z,66.80
2018-12-24T17:03:10.293Z,66.60
2018-12-24T17:08:16.489Z,66.30
2018-12-24T17:13:22.530Z,66.30
2018-12-24T17:18:28.634Z,66.10
2018-12-24T17:23:35.081Z,65.80
2018-12-24T17:28:41.262Z,65.80
2018-12-24T17:33:47.539Z,65.70
2018-12-24T17:38:53.650Z,65.70
2018-12-24T17:44:00.047Z,65.60
2018-12-24T17:49:06.277Z,65.50
2018-12-24T17:54:12.321Z,65.50
2018-12-24T17:59:18.370Z,65.40
2018-12-24T18:04:24.554Z,65.20
2018-12-24T18:09:30.752Z,65.00
2018-12-24T18:14:36.879Z,64.50
2018-12-24T18:19:42.917Z,64.20
2018-12-24T18:24:49.105Z,64.10
2018-12-24T18:29:55.211Z,64.00
2018-12-24T18:35:02.203Z,63.80
2018-12-24T18:40:08.351Z,63.70
2018-12-24T18:45:14.541Z,64.00
2018-12-24T18:50:20.971Z,64.20
2018-12-24T18:55:27.212Z,63.90
2018-12-24T19:00:33.630Z,64.00
2018-12-24T19:05:39.842Z,64.10
2018-12-24T19:10:46.284Z,63.80
2018-12-24T19:15:52.480Z,63.20
2018-12-24T19:20:58.595Z,62.70
2018-12-24T19:26:04.681Z,62.40
2018-12-24T19:31:10.776Z,62.00
2018-12-24T19:36:17.285Z,62.60
2018-12-24T19:41:23.553Z,62.90
2018-12-24T19:46:29.685Z,62.70
2018-12-24T19:51:35.816Z,63.00
2018-12-24T19:56:42.038Z,63.50
2018-12-24T20:01:48.159Z,63.60
2018-12-24T20:06:54.279Z,64.10
2018-12-24T20:12:03.414Z,64.20
2018-12-24T20:17:09.594Z,64.50
2018-12-24T20:22:16.048Z,64.80
2018-12-24T20:27:22.098Z,64.90
2018-12-24T20:32:28.213Z,64.60
2018-12-24T20:37:34.479Z,64.70
2018-12-24T20:42:40.813Z,64.90
2018-12-24T20:47:46.949Z,64.60
2018-12-24T20:52:53.171Z,64.50
2018-12-24T20:57:59.334Z,64.30
2018-12-24T21:03:05.430Z,64.10
2018-12-24T21:08:11.555Z,64.10
2018-12-24T21:13:17.595Z,64.10
2018-12-24T21:18:23.706Z,62.90
2018-12-24T21:23:29.811Z,62.40
2018-12-24T21:28:35.851Z,62.00
2018-12-24T21:33:42.165Z,61.70
2018-12-24T21:38:48.302Z,61.50
2018-12-24T21:43:54.618Z,61.20
2018-12-24T21:49:00.733Z,60.90
2018-12-24T21:54:06.815Z,60.80
2018-12-24T21:59:12.988Z,60.50
2018-12-24T22:04:19.063Z,60.50
2018-12-24T22:09:25.304Z,60.30
2018-12-24T22:14:31.365Z,61.00
2018-12-24T22:19:37.477Z,60.10
2018-12-24T22:24:43.678Z,60.00
2018-12-24T22:29:50.005Z,59.90
2018-12-24T22:34:56.162Z,59.90
2018-12-24T22:40:02.363Z,59.90
2018-12-24T22:45:08.587Z,59.70
2018-12-24T22:50:14.726Z,60.40
2018-12-24T22:55:20.790Z,59.60
2018-12-24T23:00:45.685Z,59.50
2018-12-24T23:05:51.867Z,59.50
2018-12-24T23:10:58.573Z,59.50
2018-12-24T23:16:04.811Z,59.40
2018-12-24T23:21:11.146Z,59.50
2018-12-24T23:26:17.339Z,59.30
2018-12-24T23:31:23.451Z,59.10
2018-12-24T23:36:29.666Z,59.10
2018-12-24T23:41:35.875Z,58.90
2018-12-24T23:46:42.026Z,58.70
2018-12-24T23:51:48.077Z,59.10
2018-12-24T23:56:54.155Z,58.60
